createdAt,value
2022-09-23T00:01:15.078Z,9.10
2022-09-23T00:03:46.248Z,9.10
2022-09-23T00:06:18.930Z,9.00
2022-09-23T00:08:49.624Z,9.00
2022-09-23T00:11:20.535Z,9.00
2022-09-23T00:13:51.117Z,8.90
2022-09-23T00:16:21.887Z,8.90
2022-09-23T00:18:51.009Z,8.80
2022-09-23T00:21:22.593Z,8.80
2022-09-23T00:23:51.731Z,8.80
2022-09-23T00:26:21.662Z,8.80
2022-09-23T00:28:50.816Z,8.70
2022-09-23T00:31:21.574Z,8.70
2022-09-23T00:33:54.709Z,8.60
2022-09-23T00:36:25.463Z,8.60
2022-09-23T00:38:54.414Z,8.50
2022-09-23T00:41:23.513Z,8.50
2022-09-23T00:43:53.945Z,8.50
2022-09-23T00:46:26.043Z,8.40
2022-09-23T00:48:59.664Z,8.40
2022-09-23T00:51:39.513Z,8.40
2022-09-23T00:54:08.557Z,8.40
2022-09-23T00:56:37.787Z,8.30
2022-09-23T00:59:07.275Z,8.30
2022-09-23T01:01:37.415Z,8.30
2022-09-23T01:04:07.476Z,8.30
2022-09-23T01:06:51.244Z,8.20
2022-09-23T01:09:20.904Z,8.20
2022-09-23T01:11:58.320Z,8.20
2022-09-23T01:14:38.546Z,8.20
2022-09-23T01:17:10.730Z,8.10
2022-09-23T01:19:57.845Z,8.10
2022-09-23T01:22:35.887Z,8.10
2022-09-23T01:25:33.352Z,8.00
2022-09-23T01:28:25.413Z,8.00
2022-09-23T01:31:03.293Z,8.00
2022-09-23T01:33:37.973Z,8.00
2022-09-23T01:36:23.881Z,7.90
2022-09-23T01:39:00.018Z,7.90
2022-09-23T01:41:48.843Z,7.90
2022-09-23T01:44:22.966Z,7.90
2022-09-23T01:46:56.164Z,7.80
2022-09-23T01:49:28.892Z,7.80
2022-09-23T01:52:01.088Z,7.80
2022-09-23T01:54:34.135Z,7.80
2022-09-23T01:57:06.260Z,7.70
2022-09-23T01:59:37.984Z,7.70
2022-09-23T02:02:15.205Z,7.70
2022-09-23T02:04:49.215Z,7.70
2022-09-23T02:07:23.323Z,7.60
2022-09-23T02:10:01.768Z,7.60
2022-09-23T02:12:33.232Z,7.60
2022-09-23T02:15:06.393Z,7.60
2022-09-23T02:17:42.583Z,7.50
2022-09-23T02:20:14.855Z,7.50
2022-09-23T02:22:51.254Z,7.50
2022-09-23T02:25:21.849Z,7.40
2022-09-23T02:27:57.301Z,7.40
2022-09-23T02:30:29.725Z,7.40
2022-09-23T02:33:04.585Z,7.40
2022-09-23T02:35:37.560Z,7.40
2022-09-23T02:38:18.933Z,7.30
2022-09-23T02:40:54.984Z,7.30
2022-09-23T02:43:35.600Z,7.30
2022-09-23T02:46:06.128Z,7.20
2022-09-23T02:48:41.474Z,7.20
2022-09-23T02:51:10.655Z,7.20
2022-09-23T02:53:40.140Z,7.20
2022-09-23T02:56:17.377Z,7.20
2022-09-23T02:58:47.007Z,7.10
2022-09-23T03:01:26.699Z,7.10
2022-09-23T03:04:08.694Z,7.10
2022-09-23T03:06:48.409Z,7.10
2022-09-23T03:09:23.199Z,7.00
2022-09-23T03:12:00.270Z,7.00
2022-09-23T03:14:40.421Z,7.00
2022-09-23T03:17:15.999Z,7.00
2022-09-23T03:19:52.338Z,7.00
2022-09-23T03:22:26.873Z,7.00
2022-09-23T03:25:01.026Z,6.90
2022-09-23T03:27:31.918Z,6.90
2022-09-23T03:30:01.522Z,6.90
2022-09-23T03:32:32.119Z,6.80
2022-09-23T03:35:04.614Z,6.80
2022-09-23T03:37:36.854Z,6.80
2022-09-23T03:40:10.969Z,6.80
2022-09-23T03:42:41.615Z,6.80
2022-09-23T03:45:13.078Z,6.70
2022-09-23T03:47:42.384Z,6.70
2022-09-23T03:50:13.713Z,6.70
2022-09-23T03:52:42.695Z,6.60
2022-09-23T03:55:12.342Z,6.70
2022-09-23T03:57:40.888Z,6.70
2022-09-23T04:00:10.780Z,6.70
2022-09-23T04:02:40.262Z,6.60
2022-09-23T04:05:10.217Z,6.60
2022-09-23T04:07:40.122Z,6.60
2022-09-23T04:10:10.061Z,6.60
2022-09-23T04:12:39.463Z,6.60
2022-09-23T04:15:08.863Z,6.50
2022-09-23T04:17:37.647Z,6.50
2022-09-23T04:20:07.065Z,6.50
2022-09-23T04:22:35.908Z,6.50
2022-09-23T04:25:06.618Z,6.40
2022-09-23T04:27:37.739Z,6.40
2022-09-23T04:30:07.734Z,6.40
2022-09-23T04:32:38.054Z,6.40
2022-09-23T04:35:08.380Z,6.40
2022-09-23T04:37:37.196Z,6.40
2022-09-23T04:40:08.886Z,6.40
2022-09-23T04:42:37.457Z,6.30
2022-09-23T04:45:06.439Z,6.30
2022-09-23T04:47:34.942Z,6.30
2022-09-23T04:50:03.771Z,6.30
2022-09-23T04:52:32.321Z,6.40
2022-09-23T04:55:00.953Z,6.40
2022-09-23T04:57:30.982Z,6.40
2022-09-23T04:59:59.820Z,6.40
2022-09-23T05:02:28.689Z,6.50
2022-09-23T05:04:58.366Z,6.50
2022-09-23T05:07:26.847Z,6.50
2022-09-23T05:09:55.245Z,6.60
2022-09-23T05:12:23.926Z,6.60
2022-09-23T05:14:53.754Z,6.70
2022-09-23T05:17:22.512Z,6.70
2022-09-23T05:19:51.033Z,6.80
2022-09-23T05:22:19.514Z,6.80
2022-09-23T05:24:47.752Z,7.00
2022-09-23T05:27:16.303Z,7.00
2022-09-23T05:29:44.860Z,7.10
2022-09-23T05:32:15.339Z,7.30
2022-09-23T05:34:43.894Z,7.40
2022-09-23T05:37:12.388Z,7.50
2022-09-23T05:39:40.695Z,7.70
2022-09-23T05:42:09.954Z,7.90
2022-09-23T05:44:39.228Z,8.10
2022-09-23T05:47:08.033Z,8.40
2022-09-23T05:49:58.518Z,8.80
2022-09-23T05:52:26.823Z,9.30
2022-09-23T05:54:55.437Z,9.80
2022-09-23T05:57:23.886Z,10.30
2022-09-23T05:59:52.284Z,10.80
2022-09-23T06:02:20.953Z,11.30
2022-09-23T06:04:50.787Z,11.80
2022-09-23T06:07:19.785Z,12.20
2022-09-23T06:09:48.493Z,12.60
2022-09-23T06:12:16.831Z,13.00
2022-09-23T06:14:45.135Z,13.30
2022-09-23T06:17:13.716Z,13.60
2022-09-23T06:19:42.147Z,14.00
2022-09-23T06:22:11.984Z,14.30
2022-09-23T06:24:40.559Z,14.60
2022-09-23T06:27:11.241Z,15.00
2022-09-23T06:29:40.091Z,15.20
2022-09-23T06:32:08.833Z,15.40
2022-09-23T06:34:48.946Z,15.40
2022-09-23T06:37:21.293Z,15.50
2022-09-23T06:39:50.049Z,15.60
2022-09-23T06:42:18.561Z,15.70
2022-09-23T06:44:47.231Z,15.90
2022-09-23T06:47:15.771Z,16.10
2022-09-23T06:49:44.314Z,16.30
2022-09-23T06:52:12.867Z,16.50
2022-09-23T06:54:43.181Z,16.70
2022-09-23T06:57:11.666Z,17.00
2022-09-23T06:59:40.342Z,17.20
2022-09-23T07:02:10.137Z,17.60
2022-09-23T07:04:38.524Z,17.90
2022-09-23T07:07:07.040Z,18.20
2022-09-23T07:09:35.459Z,18.60
2022-09-23T07:12:05.364Z,18.90
2022-09-23T07:14:33.901Z,19.10
2022-09-23T07:17:03.661Z,19.30
2022-09-23T07:19:32.121Z,19.50
2022-09-23T07:22:00.820Z,19.70
2022-09-23T07:24:29.142Z,19.90
2022-09-23T07:26:57.578Z,20.10
2022-09-23T07:29:28.172Z,20.30
2022-09-23T07:32:08.558Z,20.50
2022-09-23T07:34:41.248Z,20.50
2022-09-23T07:37:10.450Z,20.60
2022-09-23T07:39:39.794Z,20.70
2022-09-23T07:42:09.019Z,20.80
2022-09-23T07:44:38.809Z,20.90
2022-09-23T07:47:07.516Z,21.00
2022-09-23T07:49:36.721Z,21.00
2022-09-23T07:52:05.938Z,21.10
2022-09-23T07:54:34.648Z,21.20
2022-09-23T07:57:03.421Z,21.20
2022-09-23T07:59:32.307Z,21.30
2022-09-23T08:02:02.395Z,21.40
2022-09-23T08:04:33.169Z,21.50
2022-09-23T08:07:04.203Z,21.70
2022-09-23T08:09:35.665Z,21.70
2022-09-23T08:12:04.235Z,21.70
2022-09-23T08:14:32.672Z,21.60
2022-09-23T08:17:02.319Z,21.60
2022-09-23T08:19:30.971Z,21.60
2022-09-23T08:21:59.241Z,21.60
2022-09-23T08:24:30.252Z,21.50
2022-09-23T08:26:59.104Z,21.40
2022-09-23T08:29:27.802Z,21.40
2022-09-23T08:31:56.241Z,21.40
2022-09-23T08:34:28.672Z,21.40
2022-09-23T08:36:57.139Z,21.50
2022-09-23T08:39:25.761Z,21.40
2022-09-23T08:42:08.268Z,21.40
2022-09-23T08:44:48.239Z,21.40
2022-09-23T08:47:22.120Z,21.30
2022-09-23T08:50:00.333Z,21.30
2022-09-23T08:52:36.663Z,21.30
2022-09-23T08:55:07.020Z,21.20
2022-09-23T08:57:46.016Z,21.10
2022-09-23T09:00:24.375Z,21.00
2022-09-23T09:02:52.852Z,20.90
2022-09-23T09:05:27.562Z,20.90
2022-09-23T09:07:59.927Z,20.80
2022-09-23T09:10:36.396Z,20.80
2022-09-23T09:13:07.935Z,20.80
2022-09-23T09:15:44.026Z,20.70
2022-09-23T09:18:19.840Z,20.80
2022-09-23T09:20:59.058Z,20.90
2022-09-23T09:23:35.064Z,20.90
2022-09-23T09:26:05.479Z,21.00
2022-09-23T09:28:41.871Z,21.00
2022-09-23T09:31:25.071Z,21.10
2022-09-23T09:34:00.539Z,21.20
2022-09-23T09:36:39.020Z,21.20
2022-09-23T09:39:10.563Z,21.20
2022-09-23T09:41:41.927Z,21.10
2022-09-23T09:44:24.272Z,20.90
2022-09-23T09:47:01.730Z,20.90
2022-09-23T09:49:40.164Z,20.80
2022-09-23T09:52:31.732Z,20.70
2022-09-23T09:55:25.362Z,20.60
2022-09-23T09:58:00.115Z,20.40
2022-09-23T10:00:39.263Z,20.40
2022-09-23T10:03:32.750Z,20.30
2022-09-23T10:06:01.404Z,20.30
2022-09-23T10:08:35.302Z,20.40
2022-09-23T10:11:08.179Z,20.40
2022-09-23T10:13:37.936Z,20.50
2022-09-23T10:16:07.440Z,20.50
2022-09-23T10:18:39.715Z,20.50
2022-09-23T10:21:10.826Z,20.40
2022-09-23T10:23:43.883Z,20.40
2022-09-23T10:26:14.034Z,20.30
2022-09-23T10:28:50.280Z,20.10
2022-09-23T10:31:26.376Z,20.00
2022-09-23T10:33:57.376Z,20.00
2022-09-23T10:36:26.012Z,19.90
2022-09-23T10:39:19.671Z,19.90
2022-09-23T10:42:17.413Z,19.80
2022-09-23T10:45:16.524Z,19.80
2022-09-23T10:47:53.081Z,19.80
2022-09-23T10:50:33.117Z,19.80
2022-09-23T10:53:09.756Z,19.80
2022-09-23T10:55:53.270Z,19.90
2022-09-23T10:58:35.552Z,20.00
2022-09-23T11:01:17.450Z,19.90
2022-09-23T11:04:18.750Z,19.90
2022-09-23T11:07:07.273Z,19.80
2022-09-23T11:09:49.653Z,19.80
2022-09-23T11:12:29.724Z,19.80
2022-09-23T11:15:16.621Z,19.70
2022-09-23T11:18:20.147Z,19.70
2022-09-23T11:21:00.554Z,19.60
2022-09-23T11:23:55.256Z,19.60
2022-09-23T11:26:36.828Z,19.50
2022-09-23T11:29:36.850Z,19.60
2022-09-23T11:32:28.376Z,19.60
2022-09-23T11:35:12.618Z,19.70
2022-09-23T11:37:45.465Z,19.80
2022-09-23T11:40:19.126Z,20.00
2022-09-23T11:42:55.093Z,20.20
2022-09-23T11:45:28.019Z,20.20
2022-09-23T11:47:59.867Z,20.30
2022-09-23T11:50:34.497Z,20.40
2022-09-23T11:53:08.609Z,20.40
2022-09-23T11:55:54.385Z,20.30
2022-09-23T11:58:30.512Z,20.30
2022-09-23T12:01:07.166Z,20.30
2022-09-23T12:03:49.371Z,20.40
2022-09-23T12:06:22.905Z,20.40
2022-09-23T12:08:57.667Z,20.50
2022-09-23T12:11:31.852Z,20.50
2022-09-23T12:14:14.505Z,20.30
2022-09-23T12:17:11.240Z,20.20
2022-09-23T12:20:00.521Z,20.20
2022-09-23T12:22:42.715Z,20.10
2022-09-23T12:25:33.044Z,20.00
2022-09-23T12:28:05.438Z,19.80
2022-09-23T12:30:37.396Z,19.70
2022-09-23T12:33:17.640Z,19.60
2022-09-23T12:35:47.619Z,19.60
2022-09-23T12:38:21.392Z,19.60
2022-09-23T12:40:53.266Z,19.60
2022-09-23T12:43:30.986Z,19.50
2022-09-23T12:46:19.832Z,19.50
2022-09-23T12:49:01.039Z,19.50
2022-09-23T12:51:31.101Z,19.50
2022-09-23T12:54:21.638Z,19.50
2022-09-23T12:57:12.075Z,19.60
2022-09-23T12:59:58.793Z,19.60
2022-09-23T13:02:36.039Z,19.50
2022-09-23T13:05:39.106Z,19.50
2022-09-23T13:08:13.551Z,19.50
2022-09-23T13:10:46.581Z,19.40
2022-09-23T13:13:23.043Z,19.40
2022-09-23T13:15:51.880Z,19.40
2022-09-23T13:18:55.814Z,19.40
2022-09-23T13:22:07.407Z,19.20
2022-09-23T13:24:48.017Z,19.10
2022-09-23T13:27:21.403Z,19.10
2022-09-23T13:29:56.507Z,19.00
2022-09-23T13:32:31.742Z,18.90
2022-09-23T13:35:04.258Z,18.80
2022-09-23T13:37:45.482Z,18.80
2022-09-23T13:40:24.793Z,18.70
2022-09-23T13:42:58.558Z,18.60
2022-09-23T13:45:29.740Z,18.50
2022-09-23T13:48:02.826Z,18.50
2022-09-23T13:50:34.893Z,18.40
2022-09-23T13:53:10.025Z,18.30
2022-09-23T13:55:40.033Z,18.30
2022-09-23T13:58:18.603Z,18.20
2022-09-23T14:00:47.930Z,18.20
2022-09-23T14:03:24.986Z,18.10
2022-09-23T14:05:55.151Z,18.10
2022-09-23T14:08:25.702Z,18.10
2022-09-23T14:10:55.379Z,18.00
2022-09-23T14:13:26.978Z,18.10
2022-09-23T14:15:58.218Z,18.10
2022-09-23T14:18:35.252Z,18.20
2022-09-23T14:21:03.966Z,18.20
2022-09-23T14:23:34.161Z,18.30
2022-09-23T14:26:03.669Z,18.30
2022-09-23T14:28:33.039Z,18.30
2022-09-23T14:31:03.321Z,18.40
2022-09-23T14:33:34.509Z,18.40
2022-09-23T14:36:08.795Z,18.40
2022-09-23T14:38:52.324Z,18.40
2022-09-23T14:41:24.499Z,18.40
2022-09-23T14:43:57.177Z,18.30
2022-09-23T14:46:28.045Z,18.30
2022-09-23T14:49:00.291Z,18.20
2022-09-23T14:51:44.606Z,18.00
2022-09-23T14:54:33.128Z,18.00
2022-09-23T14:57:02.357Z,17.80
2022-09-23T14:59:35.769Z,17.70
2022-09-23T15:02:19.634Z,17.60
2022-09-23T15:04:49.345Z,17.50
2022-09-23T15:07:20.568Z,17.50
2022-09-23T15:09:50.441Z,17.40
2022-09-23T15:12:23.135Z,17.40
2022-09-23T15:14:55.131Z,17.40
2022-09-23T15:17:32.660Z,17.40
2022-09-23T15:20:06.634Z,17.30
2022-09-23T15:22:44.774Z,17.30
2022-09-23T15:25:20.571Z,17.30
2022-09-23T15:28:01.107Z,17.30
2022-09-23T15:30:30.459Z,17.30
2022-09-23T15:32:59.882Z,17.20
2022-09-23T15:35:29.442Z,17.20
2022-09-23T15:38:00.462Z,17.20
2022-09-23T15:40:32.789Z,17.20
2022-09-23T15:43:07.116Z,17.20
2022-09-23T15:45:38.507Z,17.20
2022-09-23T15:48:11.767Z,17.20
2022-09-23T15:50:42.382Z,17.20
2022-09-23T15:53:15.576Z,17.10
2022-09-23T15:55:45.958Z,17.10
2022-09-23T15:58:14.958Z,17.00
2022-09-23T16:00:43.471Z,16.90
2022-09-23T16:03:15.679Z,16.90
2022-09-23T16:05:51.191Z,16.80
2022-09-23T16:08:23.383Z,16.70
2022-09-23T16:10:53.416Z,16.60
2022-09-23T16:13:22.269Z,16.60
2022-09-23T16:15:50.958Z,16.50
2022-09-23T16:18:19.273Z,16.50
2022-09-23T16:20:49.501Z,16.50
2022-09-23T16:23:35.498Z,16.40
2022-09-23T16:26:08.393Z,16.30
2022-09-23T16:28:37.170Z,16.30
2022-09-23T16:31:06.206Z,16.20
2022-09-23T16:33:35.108Z,16.10
2022-09-23T16:36:04.056Z,15.90
2022-09-23T16:38:33.509Z,15.90
2022-09-23T16:41:03.017Z,15.70
2022-09-23T16:43:39.493Z,15.60
2022-09-23T16:46:09.007Z,15.50
2022-09-23T16:48:40.400Z,15.40
2022-09-23T16:51:09.698Z,15.20
2022-09-23T16:53:39.298Z,15.10
2022-09-23T16:56:09.747Z,15.00
2022-09-23T16:58:41.088Z,14.90
2022-09-23T17:01:32.114Z,14.80
2022-09-23T17:04:01.012Z,14.70
2022-09-23T17:06:29.709Z,14.70
2022-09-23T17:08:58.241Z,14.50
2022-09-23T17:11:28.342Z,14.50
2022-09-23T17:14:01.336Z,14.40
2022-09-23T17:16:31.175Z,14.30
2022-09-23T17:19:03.063Z,14.30
2022-09-23T17:21:31.910Z,14.20
2022-09-23T17:24:00.391Z,14.10
2022-09-23T17:26:29.600Z,14.10
2022-09-23T17:29:02.094Z,14.10
2022-09-23T17:31:30.915Z,14.00
2022-09-23T17:34:00.849Z,14.00
2022-09-23T17:36:29.194Z,13.90
2022-09-23T17:38:57.556Z,13.90
2022-09-23T17:41:26.093Z,13.90
2022-09-23T17:44:00.816Z,13.80
2022-09-23T17:46:32.041Z,13.80
2022-09-23T17:49:00.537Z,13.70
2022-09-23T17:51:29.778Z,13.70
2022-09-23T17:53:59.291Z,13.60
2022-09-23T17:56:29.987Z,13.60
2022-09-23T17:59:01.683Z,13.60
2022-09-23T18:01:31.970Z,13.50
2022-09-23T18:04:05.591Z,13.50
2022-09-23T18:06:36.614Z,13.50
2022-09-23T18:09:07.079Z,13.40
2022-09-23T18:11:37.391Z,13.40
2022-09-23T18:14:07.896Z,13.40
2022-09-23T18:16:40.543Z,13.30
2022-09-23T18:19:11.978Z,13.30
2022-09-23T18:21:42.661Z,13.30
2022-09-23T18:27:01.032Z,13.20
2022-09-23T18:29:29.744Z,13.10
2022-09-23T18:31:59.940Z,13.10
2022-09-23T18:34:29.515Z,13.00
2022-09-23T18:36:58.147Z,13.00
2022-09-23T18:39:27.192Z,12.90
2022-09-23T18:41:55.614Z,12.90
2022-09-23T18:44:24.692Z,12.80
2022-09-23T18:46:53.359Z,12.80
2022-09-23T18:49:52.428Z,12.70
2022-09-23T18:52:22.180Z,12.70
2022-09-23T18:54:54.360Z,12.60
2022-09-23T18:57:23.757Z,12.50
2022-09-23T18:59:52.239Z,12.50
2022-09-23T19:02:20.619Z,12.50
2022-09-23T19:04:52.705Z,12.40
2022-09-23T19:07:21.022Z,12.40
2022-09-23T19:09:49.865Z,12.30
2022-09-23T19:12:18.318Z,12.30
2022-09-23T19:14:47.639Z,12.20
2022-09-23T19:17:16.243Z,12.10
2022-09-23T19:19:45.954Z,12.10
2022-09-23T19:22:15.884Z,12.00
2022-09-23T19:24:44.632Z,12.00
2022-09-23T19:27:13.127Z,11.90
2022-09-23T19:29:42.317Z,11.80
2022-09-23T19:32:11.313Z,11.80
2022-09-23T19:34:40.158Z,11.70
2022-09-23T19:37:08.637Z,11.70
2022-09-23T19:39:40.658Z,11.70
2022-09-23T19:42:09.221Z,11.60
2022-09-23T19:44:39.293Z,11.60
2022-09-23T19:47:08.131Z,11.50
2022-09-23T19:49:36.513Z,11.50
2022-09-23T19:52:05.138Z,11.40
2022-09-23T19:54:33.985Z,11.40
2022-09-23T19:57:03.818Z,11.30
2022-09-23T19:59:32.916Z,11.30
2022-09-23T20:02:01.727Z,11.20
2022-09-23T20:04:30.381Z,11.20
2022-09-23T20:06:59.066Z,11.20
2022-09-23T20:09:29.038Z,11.10
2022-09-23T20:11:58.517Z,11.10
2022-09-23T20:14:28.472Z,11.10
2022-09-23T20:16:57.047Z,11.10
2022-09-23T20:19:25.452Z,11.10
2022-09-23T20:22:07.921Z,11.10
2022-09-23T20:24:36.487Z,11.00
2022-09-23T20:27:09.948Z,11.00
2022-09-23T20:29:39.829Z,11.00
2022-09-23T20:32:09.877Z,11.00
2022-09-23T20:34:38.498Z,11.00
2022-09-23T20:37:07.088Z,11.00
2022-09-23T20:39:35.909Z,11.00
2022-09-23T20:42:08.009Z,11.00
2022-09-23T20:44:36.485Z,11.00
2022-09-23T20:47:06.483Z,11.00
2022-09-23T20:49:36.447Z,11.00
2022-09-23T20:52:05.834Z,11.10
2022-09-23T20:54:34.445Z,11.10
2022-09-23T20:57:02.887Z,11.10
2022-09-23T20:59:31.689Z,11.10
2022-09-23T21:02:00.582Z,11.10
2022-09-23T21:04:31.448Z,11.10
2022-09-23T21:07:01.250Z,11.20
2022-09-23T21:09:32.023Z,11.20
2022-09-23T21:12:00.658Z,11.20
2022-09-23T21:14:29.123Z,11.20
2022-09-23T21:16:57.600Z,11.20
2022-09-23T21:19:27.898Z,11.20
2022-09-23T21:21:58.055Z,11.20
2022-09-23T21:27:14.868Z,11.20
2022-09-23T21:29:43.563Z,11.20
2022-09-23T21:32:12.047Z,11.20
2022-09-23T21:34:40.584Z,11.10
2022-09-23T21:37:10.618Z,11.10
2022-09-23T21:39:39.322Z,11.10
2022-09-23T21:42:07.610Z,11.10
2022-09-23T21:44:36.446Z,11.10
2022-09-23T21:47:04.948Z,11.10
2022-09-23T21:49:33.598Z,11.10
2022-09-23T21:52:02.490Z,11.10
2022-09-23T21:54:32.379Z,11.10
2022-09-23T21:57:00.753Z,11.10
2022-09-23T21:59:29.342Z,11.10
2022-09-23T22:01:57.687Z,11.10
2022-09-23T22:04:26.176Z,11.10
2022-09-23T22:06:54.967Z,11.10
2022-09-23T22:09:23.407Z,11.10
2022-09-23T22:12:11.233Z,11.10
2022-09-23T22:14:40.824Z,11.10
2022-09-23T22:17:12.269Z,11.10
2022-09-23T22:19:46.617Z,11.00
2022-09-23T22:22:18.024Z,11.00
2022-09-23T22:24:49.364Z,11.00
2022-09-23T22:27:21.264Z,11.00
2022-09-23T22:30:07.461Z,11.00
2022-09-23T22:32:41.894Z,11.00
2022-09-23T22:35:13.141Z,11.00
2022-09-23T22:37:41.554Z,11.00
2022-09-23T22:40:14.089Z,10.90
2022-09-23T22:42:44.791Z,11.00
2022-09-23T22:45:14.805Z,11.00
2022-09-23T22:47:45.524Z,10.90
2022-09-23T22:50:15.237Z,11.00
2022-09-23T22:52:43.854Z,11.00
2022-09-23T22:55:12.891Z,11.00
2022-09-23T22:57:43.070Z,11.00
2022-09-23T23:00:13.494Z,11.00
2022-09-23T23:02:42.624Z,11.00
2022-09-23T23:05:11.946Z,11.00
2022-09-23T23:07:41.201Z,11.00
2022-09-23T23:10:10.649Z,11.10
2022-09-23T23:12:40.211Z,11.10
2022-09-23T23:15:12.374Z,11.10
2022-09-23T23:17:43.639Z,11.10
2022-09-23T23:20:12.184Z,11.10
2022-09-23T23:22:40.672Z,11.10
2022-09-23T23:25:10.494Z,11.10
2022-09-23T23:27:39.166Z,11.20
2022-09-23T23:30:09.375Z,11.20
2022-09-23T23:32:39.375Z,11.20
2022-09-23T23:35:08.594Z,11.20
2022-09-23T23:37:36.993Z,11.20
2022-09-23T23:40:06.721Z,11.20
2022-09-23T23:42:35.158Z,11.20
2022-09-23T23:45:03.668Z,11.20
2022-09-23T23:47:32.257Z,11.20
2022-09-23T23:50:04.453Z,11.20
2022-09-23T23:52:33.338Z,11.20
2022-09-23T23:55:01.686Z,11.20
2022-09-23T23:57:30.068Z,11.20
2022-09-23T23:59:58.727Z,11.20
